sensor_id;sensor_type;location;lat;lon;timestamp;temperature;humidity
38568;DHT22;24338;48.280;10.970;2023-05-29T00:01:36;10.50;99.90
38568;DHT22;24338;48.280;10.970;2023-05-29T00:04:04;10.60;99.90
38568;DHT22;24338;48.280;10.970;2023-05-29T00:06:32;10.50;99.90
38568;DHT22;24338;48.280;10.970;2023-05-29T00:08:58;10.50;99.90
38568;DHT22;24338;48.280;10.970;2023-05-29T00:11:25;10.50;99.90
38568;DHT22;24338;48.280;10.970;2023-05-29T00:13:52;10.40;99.90
38568;DHT22;24338;48.280;10.970;2023-05-29T00:16:19;10.40;99.90
38568;DHT22;24338;48.280;10.970;2023-05-29T00:18:46;10.20;99.90
38568;DHT22;24338;48.280;10.970;2023-05-29T00:21:13;10.20;99.90
38568;DHT22;24338;48.280;10.970;2023-05-29T00:23:41;10.10;99.90
38568;DHT22;24338;48.280;10.970;2023-05-29T00:26:09;10.00;99.90
38568;DHT22;24338;48.280;10.970;2023-05-29T00:28:36;10.00;99.90
38568;DHT22;24338;48.280;10.970;2023-05-29T00:31:03;10.00;99.90
38568;DHT22;24338;48.280;10.970;2023-05-29T00:33:30;10.00;99.90
38568;DHT22;24338;48.280;10.970;2023-05-29T00:35:57;10.00;99.90
38568;DHT22;24338;48.280;10.970;2023-05-29T00:38:23;10.00;99.90
38568;DHT22;24338;48.280;10.970;2023-05-29T00:40:50;10.00;99.90
38568;DHT22;24338;48.280;10.970;2023-05-29T00:43:17;10.00;99.90
38568;DHT22;24338;48.280;10.970;2023-05-29T00:45:44;10.00;99.90
38568;DHT22;24338;48.280;10.970;2023-05-29T00:48:11;10.00;99.90
38568;DHT22;24338;48.280;10.970;2023-05-29T00:50:38;10.00;99.90
38568;DHT22;24338;48.280;10.970;2023-05-29T00:53:05;10.00;99.90
38568;DHT22;24338;48.280;10.970;2023-05-29T00:55:34;10.00;99.90
38568;DHT22;24338;48.280;10.970;2023-05-29T00:58:01;10.00;99.90
38568;DHT22;24338;48.280;10.970;2023-05-29T01:00:29;10.00;99.90
38568;DHT22;24338;48.280;10.970;2023-05-29T01:02:57;10.00;99.90
38568;DHT22;24338;48.280;10.970;2023-05-29T01:05:25;10.00;99.90
38568;DHT22;24338;48.280;10.970;2023-05-29T01:07:52;9.90;99.90
38568;DHT22;24338;48.280;10.970;2023-05-29T01:10:19;9.90;99.90
38568;DHT22;24338;48.280;10.970;2023-05-29T01:12:54;9.90;99.90
38568;DHT22;24338;48.280;10.970;2023-05-29T01:15:30;9.90;99.90
38568;DHT22;24338;48.280;10.970;2023-05-29T01:21:00;9.90;99.90
38568;DHT22;24338;48.280;10.970;2023-05-29T01:29:02;9.70;99.90
38568;DHT22;24338;48.280;10.970;2023-05-29T01:31:31;9.60;99.90
38568;DHT22;24338;48.280;10.970;2023-05-29T01:33:59;9.60;99.90
38568;DHT22;24338;48.280;10.970;2023-05-29T01:36:27;9.50;99.90
38568;DHT22;24338;48.280;10.970;2023-05-29T01:38:56;9.50;99.90
38568;DHT22;24338;48.280;10.970;2023-05-29T01:41:24;9.40;99.90
38568;DHT22;24338;48.280;10.970;2023-05-29T01:43:52;9.30;99.90
38568;DHT22;24338;48.280;10.970;2023-05-29T01:46:20;9.20;99.90
38568;DHT22;24338;48.280;10.970;2023-05-29T01:48:48;9.10;99.90
38568;DHT22;24338;48.280;10.970;2023-05-29T01:51:15;9.10;99.90
38568;DHT22;24338;48.280;10.970;2023-05-29T01:53:43;9.00;99.90
38568;DHT22;24338;48.280;10.970;2023-05-29T01:56:10;8.90;99.90
38568;DHT22;24338;48.280;10.970;2023-05-29T01:58:41;8.90;99.90
38568;DHT22;24338;48.280;10.970;2023-05-29T02:01:07;8.90;99.90
38568;DHT22;24338;48.280;10.970;2023-05-29T02:03:35;8.90;99.90
38568;DHT22;24338;48.280;10.970;2023-05-29T02:06:02;8.90;99.90
38568;DHT22;24338;48.280;10.970;2023-05-29T02:08:29;8.90;99.90
38568;DHT22;24338;48.280;10.970;2023-05-29T02:10:56;8.90;99.90
38568;DHT22;24338;48.280;10.970;2023-05-29T02:13:23;8.90;99.90
38568;DHT22;24338;48.280;10.970;2023-05-29T02:15:50;8.80;99.90
38568;DHT22;24338;48.280;10.970;2023-05-29T02:18:17;8.90;99.90
38568;DHT22;24338;48.280;10.970;2023-05-29T02:20:44;8.90;99.90
38568;DHT22;24338;48.280;10.970;2023-05-29T02:23:12;8.90;99.90
38568;DHT22;24338;48.280;10.970;2023-05-29T02:25:39;8.80;99.90
38568;DHT22;24338;48.280;10.970;2023-05-29T02:28:07;8.90;99.90
38568;DHT22;24338;48.280;10.970;2023-05-29T02:30:34;8.80;99.90
38568;DHT22;24338;48.280;10.970;2023-05-29T02:33:02;8.80;99.90
38568;DHT22;24338;48.280;10.970;2023-05-29T02:35:28;8.90;99.90
38568;DHT22;24338;48.280;10.970;2023-05-29T02:37:56;8.90;99.90
38568;DHT22;24338;48.280;10.970;2023-05-29T02:40:22;8.80;99.90
38568;DHT22;24338;48.280;10.970;2023-05-29T02:42:50;8.90;99.90
38568;DHT22;24338;48.280;10.970;2023-05-29T02:45:17;8.80;99.90
38568;DHT22;24338;48.280;10.970;2023-05-29T02:47:44;8.80;99.90
38568;DHT22;24338;48.280;10.970;2023-05-29T02:50:11;8.70;99.90
38568;DHT22;24338;48.280;10.970;2023-05-29T02:52:41;8.70;99.90
38568;DHT22;24338;48.280;10.970;2023-05-29T02:55:08;8.70;99.90
38568;DHT22;24338;48.280;10.970;2023-05-29T02:57:35;8.70;99.90
38568;DHT22;24338;48.280;10.970;2023-05-29T03:00:02;8.60;99.90
38568;DHT22;24338;48.280;10.970;2023-05-29T03:02:34;8.60;99.90
38568;DHT22;24338;48.280;10.970;2023-05-29T03:05:04;8.70;99.90
38568;DHT22;24338;48.280;10.970;2023-05-29T03:07:31;8.60;99.90
38568;DHT22;24338;48.280;10.970;2023-05-29T03:09:58;8.60;99.90
38568;DHT22;24338;48.280;10.970;2023-05-29T03:12:26;8.50;99.90
38568;DHT22;24338;48.280;10.970;2023-05-29T03:14:54;8.50;99.90
38568;DHT22;24338;48.280;10.970;2023-05-29T03:17:23;8.40;99.90
38568;DHT22;24338;48.280;10.970;2023-05-29T03:19:50;8.40;99.90
38568;DHT22;24338;48.280;10.970;2023-05-29T03:22:18;8.40;99.90
38568;DHT22;24338;48.280;10.970;2023-05-29T03:24:45;8.30;99.90
38568;DHT22;24338;48.280;10.970;2023-05-29T03:27:11;8.30;99.90
38568;DHT22;24338;48.280;10.970;2023-05-29T03:29:38;8.30;99.90
38568;DHT22;24338;48.280;10.970;2023-05-29T03:32:05;8.30;99.90
38568;DHT22;24338;48.280;10.970;2023-05-29T03:34:32;8.30;99.90
38568;DHT22;24338;48.280;10.970;2023-05-29T03:36:59;8.20;99.90
38568;DHT22;24338;48.280;10.970;2023-05-29T03:39:26;8.20;99.90
38568;DHT22;24338;48.280;10.970;2023-05-29T03:41:53;8.20;99.90
38568;DHT22;24338;48.280;10.970;2023-05-29T03:44:20;8.20;99.90
38568;DHT22;24338;48.280;10.970;2023-05-29T03:46:47;8.20;99.90
38568;DHT22;24338;48.280;10.970;2023-05-29T03:49:14;8.20;99.90
38568;DHT22;24338;48.280;10.970;2023-05-29T03:51:41;8.20;99.90
38568;DHT22;24338;48.280;10.970;2023-05-29T03:54:08;8.20;99.90
38568;DHT22;24338;48.280;10.970;2023-05-29T03:56:35;8.20;99.90
38568;DHT22;24338;48.280;10.970;2023-05-29T03:59:02;8.30;99.90
38568;DHT22;24338;48.280;10.970;2023-05-29T04:01:29;8.30;99.90
38568;DHT22;24338;48.280;10.970;2023-05-29T04:03:56;8.30;99.90
38568;DHT22;24338;48.280;10.970;2023-05-29T04:06:23;8.30;99.90
38568;DHT22;24338;48.280;10.970;2023-05-29T04:08:50;8.40;99.90
38568;DHT22;24338;48.280;10.970;2023-05-29T04:11:17;8.40;99.90
38568;DHT22;24338;48.280;10.970;2023-05-29T04:13:47;8.40;99.90
38568;DHT22;24338;48.280;10.970;2023-05-29T04:16:15;8.50;99.90
38568;DHT22;24338;48.280;10.970;2023-05-29T04:18:42;8.50;99.90
38568;DHT22;24338;48.280;10.970;2023-05-29T04:21:09;8.50;99.90
38568;DHT22;24338;48.280;10.970;2023-05-29T04:23:36;8.60;99.90
38568;DHT22;24338;48.280;10.970;2023-05-29T04:26:03;8.60;99.90
38568;DHT22;24338;48.280;10.970;2023-05-29T04:28:32;8.70;99.90
38568;DHT22;24338;48.280;10.970;2023-05-29T04:30:59;8.70;99.90
38568;DHT22;24338;48.280;10.970;2023-05-29T04:33:29;8.80;99.90
38568;DHT22;24338;48.280;10.970;2023-05-29T04:35:56;8.90;99.90
38568;DHT22;24338;48.280;10.970;2023-05-29T04:38:22;8.90;99.90
38568;DHT22;24338;48.280;10.970;2023-05-29T04:40:52;9.00;99.90
38568;DHT22;24338;48.280;10.970;2023-05-29T04:43:24;9.00;99.90
38568;DHT22;24338;48.280;10.970;2023-05-29T04:45:53;9.10;99.90
38568;DHT22;24338;48.280;10.970;2023-05-29T04:48:20;9.20;99.90
38568;DHT22;24338;48.280;10.970;2023-05-29T04:50:47;9.20;99.90
38568;DHT22;24338;48.280;10.970;2023-05-29T04:53:15;9.30;99.90
38568;DHT22;24338;48.280;10.970;2023-05-29T04:55:42;9.40;99.90
38568;DHT22;24338;48.280;10.970;2023-05-29T04:58:08;9.40;99.90
38568;DHT22;24338;48.280;10.970;2023-05-29T05:00:35;9.50;99.90
38568;DHT22;24338;48.280;10.970;2023-05-29T05:03:02;9.50;99.90
38568;DHT22;24338;48.280;10.970;2023-05-29T05:05:29;9.60;99.90
38568;DHT22;24338;48.280;10.970;2023-05-29T05:07:56;9.70;99.90
38568;DHT22;24338;48.280;10.970;2023-05-29T05:10:23;9.70;99.90
38568;DHT22;24338;48.280;10.970;2023-05-29T05:12:50;9.80;99.90
38568;DHT22;24338;48.280;10.970;2023-05-29T05:15:17;9.90;99.90
38568;DHT22;24338;48.280;10.970;2023-05-29T05:17:44;10.00;99.90
38568;DHT22;24338;48.280;10.970;2023-05-29T05:20:11;10.00;99.90
38568;DHT22;24338;48.280;10.970;2023-05-29T05:22:38;10.10;99.90
38568;DHT22;24338;48.280;10.970;2023-05-29T05:25:06;10.20;99.90
38568;DHT22;24338;48.280;10.970;2023-05-29T05:27:33;10.30;99.90
38568;DHT22;24338;48.280;10.970;2023-05-29T05:30:00;10.40;99.90
38568;DHT22;24338;48.280;10.970;2023-05-29T05:32:27;10.50;99.90
38568;DHT22;24338;48.280;10.970;2023-05-29T05:34:54;10.70;99.90
38568;DHT22;24338;48.280;10.970;2023-05-29T05:37:21;10.90;99.90
38568;DHT22;24338;48.280;10.970;2023-05-29T05:39:50;11.10;99.90
38568;DHT22;24338;48.280;10.970;2023-05-29T05:42:17;11.30;99.90
38568;DHT22;24338;48.280;10.970;2023-05-29T05:44:44;11.40;99.90
38568;DHT22;24338;48.280;10.970;2023-05-29T05:47:11;11.70;99.90
38568;DHT22;24338;48.280;10.970;2023-05-29T05:49:39;11.90;99.90
38568;DHT22;24338;48.280;10.970;2023-05-29T05:52:06;12.10;99.90
38568;DHT22;24338;48.280;10.970;2023-05-29T05:54:33;12.20;99.90
38568;DHT22;24338;48.280;10.970;2023-05-29T05:57:00;12.40;99.90
38568;DHT22;24338;48.280;10.970;2023-05-29T05:59:27;12.50;99.90
38568;DHT22;24338;48.280;10.970;2023-05-29T06:01:54;12.70;99.90
38568;DHT22;24338;48.280;10.970;2023-05-29T06:04:21;12.80;99.90
38568;DHT22;24338;48.280;10.970;2023-05-29T06:06:48;12.90;99.90
38568;DHT22;24338;48.280;10.970;2023-05-29T06:09:15;13.00;99.90
38568;DHT22;24338;48.280;10.970;2023-05-29T06:11:41;13.10;99.90
38568;DHT22;24338;48.280;10.970;2023-05-29T06:14:09;13.30;99.90
38568;DHT22;24338;48.280;10.970;2023-05-29T06:16:36;13.40;99.90
38568;DHT22;24338;48.280;10.970;2023-05-29T06:19:02;13.50;99.90
38568;DHT22;24338;48.280;10.970;2023-05-29T06:21:31;13.60;99.90
38568;DHT22;24338;48.280;10.970;2023-05-29T06:23:58;13.70;99.90
38568;DHT22;24338;48.280;10.970;2023-05-29T06:26:25;13.70;99.90
38568;DHT22;24338;48.280;10.970;2023-05-29T06:28:53;13.90;99.90
38568;DHT22;24338;48.280;10.970;2023-05-29T06:31:20;14.10;99.90
38568;DHT22;24338;48.280;10.970;2023-05-29T06:33:47;14.20;99.90
38568;DHT22;24338;48.280;10.970;2023-05-29T06:36:14;14.30;99.90
38568;DHT22;24338;48.280;10.970;2023-05-29T06:38:49;14.50;99.90
38568;DHT22;24338;48.280;10.970;2023-05-29T06:41:16;14.70;99.90
38568;DHT22;24338;48.280;10.970;2023-05-29T06:43:43;14.90;99.90
38568;DHT22;24338;48.280;10.970;2023-05-29T06:46:10;14.90;99.90
38568;DHT22;24338;48.280;10.970;2023-05-29T06:48:37;15.10;99.90
38568;DHT22;24338;48.280;10.970;2023-05-29T06:51:04;15.30;99.90
38568;DHT22;24338;48.280;10.970;2023-05-29T06:53:35;15.30;99.90
38568;DHT22;24338;48.280;10.970;2023-05-29T06:56:03;15.40;99.90
38568;DHT22;24338;48.280;10.970;2023-05-29T06:58:30;15.40;99.90
38568;DHT22;24338;48.280;10.970;2023-05-29T07:00:58;15.50;99.90
38568;DHT22;24338;48.280;10.970;2023-05-29T07:03:30;15.50;99.90
38568;DHT22;24338;48.280;10.970;2023-05-29T07:05:57;15.60;99.90
38568;DHT22;24338;48.280;10.970;2023-05-29T07:08:24;15.70;99.90
38568;DHT22;24338;48.280;10.970;2023-05-29T07:10:51;15.80;99.90
38568;DHT22;24338;48.280;10.970;2023-05-29T07:13:19;15.80;99.90
38568;DHT22;24338;48.280;10.970;2023-05-29T07:15:46;16.00;99.90
38568;DHT22;24338;48.280;10.970;2023-05-29T07:18:13;16.10;99.90
38568;DHT22;24338;48.280;10.970;2023-05-29T07:20:41;16.20;99.90
38568;DHT22;24338;48.280;10.970;2023-05-29T07:23:08;16.30;99.90
38568;DHT22;24338;48.280;10.970;2023-05-29T07:25:35;16.40;99.90
38568;DHT22;24338;48.280;10.970;2023-05-29T07:28:02;16.40;99.90
38568;DHT22;24338;48.280;10.970;2023-05-29T07:30:47;16.50;99.90
38568;DHT22;24338;48.280;10.970;2023-05-29T07:33:14;16.60;99.90
38568;DHT22;24338;48.280;10.970;2023-05-29T07:35:41;16.60;99.90
38568;DHT22;24338;48.280;10.970;2023-05-29T07:38:08;16.80;99.90
38568;DHT22;24338;48.280;10.970;2023-05-29T07:40:35;16.90;99.90
38568;DHT22;24338;48.280;10.970;2023-05-29T07:43:01;17.00;99.90
38568;DHT22;24338;48.280;10.970;2023-05-29T07:45:28;17.00;99.90
38568;DHT22;24338;48.280;10.970;2023-05-29T07:47:55;17.10;99.90
38568;DHT22;24338;48.280;10.970;2023-05-29T07:50:22;17.20;99.90
38568;DHT22;24338;48.280;10.970;2023-05-29T07:52:50;17.30;99.90
38568;DHT22;24338;48.280;10.970;2023-05-29T07:55:17;17.30;99.90
38568;DHT22;24338;48.280;10.970;2023-05-29T07:57:44;17.40;99.90
38568;DHT22;24338;48.280;10.970;2023-05-29T08:00:11;17.50;99.90
38568;DHT22;24338;48.280;10.970;2023-05-29T08:02:40;17.70;99.90
38568;DHT22;24338;48.280;10.970;2023-05-29T08:05:07;17.80;99.90
38568;DHT22;24338;48.280;10.970;2023-05-29T08:07:36;18.10;99.90
38568;DHT22;24338;48.280;10.970;2023-05-29T08:10:04;18.30;99.90
38568;DHT22;24338;48.280;10.970;2023-05-29T08:12:32;18.40;99.90
38568;DHT22;24338;48.280;10.970;2023-05-29T08:15:02;18.60;99.90
38568;DHT22;24338;48.280;10.970;2023-05-29T08:17:29;18.60;99.90
38568;DHT22;24338;48.280;10.970;2023-05-29T08:19:56;18.70;99.90
38568;DHT22;24338;48.280;10.970;2023-05-29T08:22:28;18.80;99.90
38568;DHT22;24338;48.280;10.970;2023-05-29T08:24:56;18.90;99.90
38568;DHT22;24338;48.280;10.970;2023-05-29T08:27:23;19.00;99.90
38568;DHT22;24338;48.280;10.970;2023-05-29T08:29:50;19.00;99.90
38568;DHT22;24338;48.280;10.970;2023-05-29T08:32:17;19.20;99.90
38568;DHT22;24338;48.280;10.970;2023-05-29T08:34:44;19.40;99.90
38568;DHT22;24338;48.280;10.970;2023-05-29T08:37:12;19.50;98.00
38568;DHT22;24338;48.280;10.970;2023-05-29T08:39:39;19.70;97.30
38568;DHT22;24338;48.280;10.970;2023-05-29T08:42:13;19.90;97.90
38568;DHT22;24338;48.280;10.970;2023-05-29T08:44:46;20.00;96.40
38568;DHT22;24338;48.280;10.970;2023-05-29T08:47:17;20.20;94.10
38568;DHT22;24338;48.280;10.970;2023-05-29T08:49:52;20.50;95.90
38568;DHT22;24338;48.280;10.970;2023-05-29T08:52:23;20.70;95.00
38568;DHT22;24338;48.280;10.970;2023-05-29T08:54:52;21.00;94.60
38568;DHT22;24338;48.280;10.970;2023-05-29T08:57:19;21.20;92.90
38568;DHT22;24338;48.280;10.970;2023-05-29T08:59:48;21.50;93.40
38568;DHT22;24338;48.280;10.970;2023-05-29T09:02:17;21.40;92.80
38568;DHT22;24338;48.280;10.970;2023-05-29T09:04:44;21.20;89.90
38568;DHT22;24338;48.280;10.970;2023-05-29T09:07:19;21.40;90.50
38568;DHT22;24338;48.280;10.970;2023-05-29T09:09:46;21.40;89.80
38568;DHT22;24338;48.280;10.970;2023-05-29T09:12:13;21.40;90.40
38568;DHT22;24338;48.280;10.970;2023-05-29T09:14:42;21.50;88.00
38568;DHT22;24338;48.280;10.970;2023-05-29T09:17:10;21.80;90.30
38568;DHT22;24338;48.280;10.970;2023-05-29T09:19:38;22.00;89.00
38568;DHT22;24338;48.280;10.970;2023-05-29T09:24:36;22.30;86.20
38568;DHT22;24338;48.280;10.970;2023-05-29T09:27:05;22.40;84.20
38568;DHT22;24338;48.280;10.970;2023-05-29T09:29:38;22.50;81.50
38568;DHT22;24338;48.280;10.970;2023-05-29T09:32:11;22.60;85.20
38568;DHT22;24338;48.280;10.970;2023-05-29T09:34:38;22.60;80.80
38568;DHT22;24338;48.280;10.970;2023-05-29T09:37:07;22.60;82.10
38568;DHT22;24338;48.280;10.970;2023-05-29T09:42:12;22.80;79.70
38568;DHT22;24338;48.280;10.970;2023-05-29T09:44:44;23.00;79.10
38568;DHT22;24338;48.280;10.970;2023-05-29T09:47:21;23.20;77.60
38568;DHT22;24338;48.280;10.970;2023-05-29T09:49:48;23.20;73.80
38568;DHT22;24338;48.280;10.970;2023-05-29T09:52:20;23.30;73.70
38568;DHT22;24338;48.280;10.970;2023-05-29T09:54:48;23.30;73.30
38568;DHT22;24338;48.280;10.970;2023-05-29T09:57:16;23.70;73.80
38568;DHT22;24338;48.280;10.970;2023-05-29T09:59:44;24.00;71.20
38568;DHT22;24338;48.280;10.970;2023-05-29T10:02:18;24.30;72.30
38568;DHT22;24338;48.280;10.970;2023-05-29T10:04:46;24.60;69.10
38568;DHT22;24338;48.280;10.970;2023-05-29T10:07:29;24.70;69.00
38568;DHT22;24338;48.280;10.970;2023-05-29T10:10:04;24.50;68.00
38568;DHT22;24338;48.280;10.970;2023-05-29T10:12:36;24.60;71.30
38568;DHT22;24338;48.280;10.970;2023-05-29T10:15:06;24.30;67.00
38568;DHT22;24338;48.280;10.970;2023-05-29T10:17:37;24.40;68.80
38568;DHT22;24338;48.280;10.970;2023-05-29T10:20:06;24.10;65.20
38568;DHT22;24338;48.280;10.970;2023-05-29T10:22:40;24.00;72.20
38568;DHT22;24338;48.280;10.970;2023-05-29T10:25:09;24.10;64.00
38568;DHT22;24338;48.280;10.970;2023-05-29T10:27:37;24.50;66.10
38568;DHT22;24338;48.280;10.970;2023-05-29T10:36:30;24.80;64.20
38568;DHT22;24338;48.280;10.970;2023-05-29T10:38:37;24.80;64.20
38568;DHT22;24338;48.280;10.970;2023-05-29T10:43:54;24.70;62.40
38568;DHT22;24338;48.280;10.970;2023-05-29T10:46:25;24.80;64.40
38568;DHT22;24338;48.280;10.970;2023-05-29T10:49:19;25.00;67.40
38568;DHT22;24338;48.280;10.970;2023-05-29T10:51:47;25.10;60.10
38568;DHT22;24338;48.280;10.970;2023-05-29T10:54:15;25.40;60.00
38568;DHT22;24338;48.280;10.970;2023-05-29T10:56:44;25.50;63.00
38568;DHT22;24338;48.280;10.970;2023-05-29T10:59:18;25.40;65.10
38568;DHT22;24338;48.280;10.970;2023-05-29T11:01:45;25.20;61.60
38568;DHT22;24338;48.280;10.970;2023-05-29T11:06:46;25.20;64.30
38568;DHT22;24338;48.280;10.970;2023-05-29T11:12:23;25.30;61.20
38568;DHT22;24338;48.280;10.970;2023-05-29T11:15:03;25.10;59.50
38568;DHT22;24338;48.280;10.970;2023-05-29T11:20:09;24.40;62.00
38568;DHT22;24338;48.280;10.970;2023-05-29T11:25:26;24.10;61.80
38568;DHT22;24338;48.280;10.970;2023-05-29T11:27:54;24.10;62.80
38568;DHT22;24338;48.280;10.970;2023-05-29T11:30:22;24.40;63.40
38568;DHT22;24338;48.280;10.970;2023-05-29T11:32:49;24.50;65.30
38568;DHT22;24338;48.280;10.970;2023-05-29T11:35:22;25.10;61.70
38568;DHT22;24338;48.280;10.970;2023-05-29T11:37:49;25.50;62.90
38568;DHT22;24338;48.280;10.970;2023-05-29T11:40:17;26.00;61.30
38568;DHT22;24338;48.280;10.970;2023-05-29T11:42:47;26.20;60.90
38568;DHT22;24338;48.280;10.970;2023-05-29T11:45:17;26.00;57.90
38568;DHT22;24338;48.280;10.970;2023-05-29T11:50:24;25.60;61.20
38568;DHT22;24338;48.280;10.970;2023-05-29T11:52:52;25.30;59.10
38568;DHT22;24338;48.280;10.970;2023-05-29T11:55:20;25.30;57.40
38568;DHT22;24338;48.280;10.970;2023-05-29T11:57:48;25.30;59.00
38568;DHT22;24338;48.280;10.970;2023-05-29T12:00:16;25.00;59.30
38568;DHT22;24338;48.280;10.970;2023-05-29T12:02:44;25.10;60.30
38568;DHT22;24338;48.280;10.970;2023-05-29T12:05:15;25.20;59.80
38568;DHT22;24338;48.280;10.970;2023-05-29T12:07:53;25.50;58.30
38568;DHT22;24338;48.280;10.970;2023-05-29T12:10:21;25.50;57.60
38568;DHT22;24338;48.280;10.970;2023-05-29T12:15:15;25.70;59.60
38568;DHT22;24338;48.280;10.970;2023-05-29T12:17:45;25.90;57.50
38568;DHT22;24338;48.280;10.970;2023-05-29T12:20:13;26.10;56.50
38568;DHT22;24338;48.280;10.970;2023-05-29T12:22:42;26.70;57.10
38568;DHT22;24338;48.280;10.970;2023-05-29T12:25:17;26.90;55.70
38568;DHT22;24338;48.280;10.970;2023-05-29T12:27:46;26.90;57.80
38568;DHT22;24338;48.280;10.970;2023-05-29T12:30:24;27.20;57.30
38568;DHT22;24338;48.280;10.970;2023-05-29T12:33:00;26.80;57.60
38568;DHT22;24338;48.280;10.970;2023-05-29T12:35:28;26.80;57.10
38568;DHT22;24338;48.280;10.970;2023-05-29T12:40:24;27.10;55.30
38568;DHT22;24338;48.280;10.970;2023-05-29T12:43:12;26.80;56.00
38568;DHT22;24338;48.280;10.970;2023-05-29T12:45:39;26.90;58.70
38568;DHT22;24338;48.280;10.970;2023-05-29T12:48:07;27.10;55.70
38568;DHT22;24338;48.280;10.970;2023-05-29T12:50:37;27.10;57.00
38568;DHT22;24338;48.280;10.970;2023-05-29T12:53:12;27.30;55.30
38568;DHT22;24338;48.280;10.970;2023-05-29T12:55:42;27.40;54.90
38568;DHT22;24338;48.280;10.970;2023-05-29T12:58:13;27.40;55.60
38568;DHT22;24338;48.280;10.970;2023-05-29T13:00:42;27.50;56.60
38568;DHT22;24338;48.280;10.970;2023-05-29T13:03:09;27.80;55.30
38568;DHT22;24338;48.280;10.970;2023-05-29T13:05:38;27.70;54.80
38568;DHT22;24338;48.280;10.970;2023-05-29T13:08:06;27.20;56.40
38568;DHT22;24338;48.280;10.970;2023-05-29T13:10:35;26.80;56.80
38568;DHT22;24338;48.280;10.970;2023-05-29T13:13:02;26.90;58.60
38568;DHT22;24338;48.280;10.970;2023-05-29T13:15:30;26.90;59.20
38568;DHT22;24338;48.280;10.970;2023-05-29T13:18:00;27.10;55.90
38568;DHT22;24338;48.280;10.970;2023-05-29T13:20:27;27.30;56.90
38568;DHT22;24338;48.280;10.970;2023-05-29T13:22:54;27.50;55.70
38568;DHT22;24338;48.280;10.970;2023-05-29T13:25:21;27.40;54.50
38568;DHT22;24338;48.280;10.970;2023-05-29T13:27:50;27.50;57.70
38568;DHT22;24338;48.280;10.970;2023-05-29T13:30:17;27.60;54.80
38568;DHT22;24338;48.280;10.970;2023-05-29T13:32:44;27.20;55.00
38568;DHT22;24338;48.280;10.970;2023-05-29T13:35:11;26.80;56.10
38568;DHT22;24338;48.280;10.970;2023-05-29T13:37:39;26.50;58.70
38568;DHT22;24338;48.280;10.970;2023-05-29T13:40:07;26.90;55.80
38568;DHT22;24338;48.280;10.970;2023-05-29T13:42:36;27.10;54.70
38568;DHT22;24338;48.280;10.970;2023-05-29T13:45:06;27.40;52.50
38568;DHT22;24338;48.280;10.970;2023-05-29T13:47:35;27.30;53.90
38568;DHT22;24338;48.280;10.970;2023-05-29T13:50:02;26.90;56.60
38568;DHT22;24338;48.280;10.970;2023-05-29T13:52:29;26.70;56.10
38568;DHT22;24338;48.280;10.970;2023-05-29T13:54:56;26.60;56.90
38568;DHT22;24338;48.280;10.970;2023-05-29T13:57:26;26.60;56.50
38568;DHT22;24338;48.280;10.970;2023-05-29T13:59:53;26.90;57.10
38568;DHT22;24338;48.280;10.970;2023-05-29T14:02:19;27.30;56.50
38568;DHT22;24338;48.280;10.970;2023-05-29T14:04:48;27.60;56.30
38568;DHT22;24338;48.280;10.970;2023-05-29T14:07:15;27.70;54.50
38568;DHT22;24338;48.280;10.970;2023-05-29T14:09:42;27.90;53.80
38568;DHT22;24338;48.280;10.970;2023-05-29T14:12:10;28.20;53.60
38568;DHT22;24338;48.280;10.970;2023-05-29T14:14:37;27.80;51.10
38568;DHT22;24338;48.280;10.970;2023-05-29T14:17:05;27.60;53.80
38568;DHT22;24338;48.280;10.970;2023-05-29T14:19:32;27.40;54.20
38568;DHT22;24338;48.280;10.970;2023-05-29T14:21:59;27.40;53.30
38568;DHT22;24338;48.280;10.970;2023-05-29T14:24:27;27.50;55.00
38568;DHT22;24338;48.280;10.970;2023-05-29T14:26:54;27.50;54.40
38568;DHT22;24338;48.280;10.970;2023-05-29T14:29:22;27.30;53.00
38568;DHT22;24338;48.280;10.970;2023-05-29T14:31:49;27.40;53.00
38568;DHT22;24338;48.280;10.970;2023-05-29T14:34:16;26.70;52.80
38568;DHT22;24338;48.280;10.970;2023-05-29T14:36:44;26.40;53.90
38568;DHT22;24338;48.280;10.970;2023-05-29T14:39:11;26.50;53.80
38568;DHT22;24338;48.280;10.970;2023-05-29T14:41:42;26.30;55.10
38568;DHT22;24338;48.280;10.970;2023-05-29T14:44:09;26.30;55.60
38568;DHT22;24338;48.280;10.970;2023-05-29T14:46:38;26.20;55.20
38568;DHT22;24338;48.280;10.970;2023-05-29T14:49:05;26.50;53.90
38568;DHT22;24338;48.280;10.970;2023-05-29T14:51:32;26.50;54.20
38568;DHT22;24338;48.280;10.970;2023-05-29T14:53:59;26.50;54.20
38568;DHT22;24338;48.280;10.970;2023-05-29T14:56:27;26.50;56.70
38568;DHT22;24338;48.280;10.970;2023-05-29T14:58:55;26.60;53.10
38568;DHT22;24338;48.280;10.970;2023-05-29T15:01:22;26.50;55.20
38568;DHT22;24338;48.280;10.970;2023-05-29T15:03:49;26.50;56.70
38568;DHT22;24338;48.280;10.970;2023-05-29T15:06:16;26.50;56.40
38568;DHT22;24338;48.280;10.970;2023-05-29T15:08:43;26.40;56.50
38568;DHT22;24338;48.280;10.970;2023-05-29T15:11:10;26.50;53.40
38568;DHT22;24338;48.280;10.970;2023-05-29T15:13:39;26.30;51.70
38568;DHT22;24338;48.280;10.970;2023-05-29T15:16:06;26.20;56.70
38568;DHT22;24338;48.280;10.970;2023-05-29T15:18:34;26.20;53.20
38568;DHT22;24338;48.280;10.970;2023-05-29T15:21:01;26.10;52.80
38568;DHT22;24338;48.280;10.970;2023-05-29T15:23:28;26.30;55.20
38568;DHT22;24338;48.280;10.970;2023-05-29T15:25:55;26.20;54.30
38568;DHT22;24338;48.280;10.970;2023-05-29T15:28:23;26.20;55.30
38568;DHT22;24338;48.280;10.970;2023-05-29T15:30:50;26.20;52.00
38568;DHT22;24338;48.280;10.970;2023-05-29T15:33:18;26.30;53.20
38568;DHT22;24338;48.280;10.970;2023-05-29T15:35:45;26.00;50.60
38568;DHT22;24338;48.280;10.970;2023-05-29T15:38:13;25.70;50.50
38568;DHT22;24338;48.280;10.970;2023-05-29T15:40:40;25.50;53.60
38568;DHT22;24338;48.280;10.970;2023-05-29T15:43:08;25.50;53.60
38568;DHT22;24338;48.280;10.970;2023-05-29T15:45:38;25.60;54.90
38568;DHT22;24338;48.280;10.970;2023-05-29T15:48:06;25.60;54.80
38568;DHT22;24338;48.280;10.970;2023-05-29T15:50:34;25.70;55.20
38568;DHT22;24338;48.280;10.970;2023-05-29T15:53:01;25.70;54.80
38568;DHT22;24338;48.280;10.970;2023-05-29T15:55:28;25.80;54.70
38568;DHT22;24338;48.280;10.970;2023-05-29T15:57:55;25.70;53.80
38568;DHT22;24338;48.280;10.970;2023-05-29T16:00:22;25.60;53.70
38568;DHT22;24338;48.280;10.970;2023-05-29T16:02:50;25.60;53.00
38568;DHT22;24338;48.280;10.970;2023-05-29T16:05:17;25.70;53.00
38568;DHT22;24338;48.280;10.970;2023-05-29T16:07:44;25.70;51.90